Mount Shasta, California
Current Conditions -  °F | °C
As of 2:56 PM on Tuesday 27 Jan 2015 (Local Time) from KMHS Reporting Station
Scattered Clouds Scattered Clouds  
Wind Chill: 47°   Ceiling: Unl
Heat Index: 49°   Visibility: 10mi
Dew Point: 37°   Wind: 5mph
Humidity: 64%   Direction: NA
Pressure: 30.2"   Gusts: NA
Location:  41.31°N, 122.31°W
Report Text: KMHS 272256Z AUTO VRB04KT 10SM SCT070 09/03 A3020 RMK AO2 SLP247 T00940028
Loading
Personal Weather Stations






























Interactive Weather Map New forecast layout! Learn more

10-Day Weather Forecast

Advertisements
Track Severe Weather on mobile